Time;durP1;ratioP1;P1;durP2;ratioP2;P2;SDS_P1;SDS_P2;PMS_P1;PMS_P2;Temp;Humidity;BMP_temperature;BMP_pressure;BME280_temperature;BME280_humidity;BME280_pressure;Samples;Min_cycle;Max_cycle;Signal;HPM_P1;HPM_P2
2023/07/23 00:00:14;;;;;;;4.03;3.10;;;18.40;1.00;;;;;;5075531;28;20446;-44
2023/07/23 00:02:40;;;;;;;3.47;3.00;;;18.40;1.00;;;;;;5122842;27;20198;-47
2023/07/23 00:05:06;;;;;;;4.10;3.70;;;18.50;1.00;;;;;;5131366;27;20416;-44
2023/07/23 00:07:31;;;;;;;4.10;3.30;;;18.40;1.00;;;;;;5132847;27;20194;-44
2023/07/23 00:09:57;;;;;;;4.60;3.23;;;18.50;1.00;;;;;;5132461;27;20420;-45
2023/07/23 00:12:23;;;;;;;4.20;3.40;;;18.40;1.00;;;;;;5131678;27;20235;-44
2023/07/23 00:14:48;;;;;;;4.97;3.27;;;18.40;1.00;;;;;;5119914;27;20168;-46
2023/07/23 00:17:15;;;;;;;4.60;3.47;;;18.30;1.00;;;;;;5110987;28;20171;-44
2023/07/23 00:19:40;;;;;;;3.53;2.93;;;18.30;1.00;;;;;;5111125;28;20280;-45
2023/07/23 00:22:06;;;;;;;3.20;2.90;;;18.40;1.00;;;;;;5112969;28;20418;-46
2023/07/23 00:24:32;;;;;;;5.53;3.00;;;18.30;1.00;;;;;;5112946;28;20292;-44
2023/07/23 00:26:57;;;;;;;3.60;3.17;;;18.30;1.00;;;;;;5112018;28;20186;-45
2023/07/23 00:29:23;;;;;;;3.90;3.50;;;18.20;1.00;;;;;;5111935;28;20477;-44
2023/07/23 00:31:49;;;;;;;3.73;3.27;;;18.20;1.00;;;;;;5111639;28;20180;-45
2023/07/23 00:34:14;;;;;;;3.77;3.37;;;18.20;1.00;;;;;;5111630;28;20236;-44
2023/07/23 00:36:40;;;;;;;3.00;2.70;;;18.20;1.00;;;;;;5111752;28;20179;-43
2023/07/23 00:39:05;;;;;;;3.70;3.20;;;18.10;1.00;;;;;;5111802;28;20199;-44
2023/07/23 00:41:31;;;;;;;3.30;3.00;;;18.10;1.00;;;;;;5111939;28;20497;-43
2023/07/23 00:43:57;;;;;;;4.43;3.07;;;18.10;1.00;;;;;;5111696;28;20376;-45
2023/07/23 00:46:23;;;;;;;5.43;3.40;;;18.10;1.00;;;;;;5112275;28;20418;-45
2023/07/23 00:48:48;;;;;;;3.80;2.90;;;18.00;1.00;;;;;;5095385;28;20176;-47
2023/07/23 00:51:15;;;;;;;3.63;3.10;;;18.00;1.00;;;;;;5114410;28;20599;-45
2023/07/23 00:53:41;;;;;;;4.30;3.60;;;17.90;1.00;;;;;;5115713;28;20171;-44
2023/07/23 00:56:07;;;;;;;4.87;3.00;;;18.00;1.00;;;;;;5115423;28;20532;-45
2023/07/23 00:58:33;;;;;;;4.17;3.57;;;17.90;1.00;;;;;;5115548;28;20512;-43
2023/07/23 01:00:59;;;;;;;4.10;2.90;;;17.90;1.00;;;;;;5115585;28;20207;-44
2023/07/23 01:03:25;;;;;;;4.23;3.50;;;17.80;1.00;;;;;;5096589;28;20461;-45
2023/07/23 01:05:51;;;;;;;3.30;3.00;;;17.80;1.00;;;;;;5116298;28;20226;-46
2023/07/23 01:08:18;;;;;;;4.70;3.43;;;17.80;1.00;;;;;;5096645;28;20649;-46
2023/07/23 01:10:44;;;;;;;3.63;3.30;;;17.80;1.00;;;;;;5095641;28;20445;-45
2023/07/23 01:13:09;;;;;;;4.00;2.90;;;17.80;1.00;;;;;;5114409;28;20815;-44
2023/07/23 01:15:35;;;;;;;3.10;2.80;;;17.80;1.00;;;;;;5116262;28;20526;-44
2023/07/23 01:18:03;;;;;;;4.10;3.53;;;17.80;1.00;;;;;;5101246;28;20175;-46
2023/07/23 01:20:29;;;;;;;3.70;3.00;;;17.70;1.00;;;;;;5119411;28;20562;-47
2023/07/23 01:22:55;;;;;;;4.00;3.60;;;17.70;1.00;;;;;;5119330;28;20751;-45
2023/07/23 01:25:20;;;;;;;7.83;3.60;;;17.70;1.00;;;;;;5119128;28;20516;-46
2023/07/23 01:27:46;;;;;;;3.50;2.90;;;17.70;1.00;;;;;;5119210;28;20183;-45
2023/07/23 01:30:11;;;;;;;5.00;4.03;;;17.70;1.00;;;;;;5118873;28;20170;-44
2023/07/23 01:32:37;;;;;;;4.20;3.33;;;17.80;1.00;;;;;;5119014;28;20316;-45
2023/07/23 01:35:08;;;;;;;4.50;3.77;;;17.80;1.00;;;;;;5100721;28;20172;-45
2023/07/23 01:37:34;;;;;;;4.53;3.30;;;17.70;1.00;;;;;;5099579;28;20476;-44
2023/07/23 01:40:00;;;;;;;3.80;3.40;;;17.70;1.00;;;;;;5117426;28;20462;-44
2023/07/23 01:42:26;;;;;;;5.23;3.97;;;17.60;1.00;;;;;;5117289;28;20643;-45
2023/07/23 01:44:51;;;;;;;5.10;3.53;;;17.50;1.00;;;;;;5117788;28;20187;-44
2023/07/23 01:47:17;;;;;;;3.60;3.30;;;17.60;1.00;;;;;;5119129;27;20179;-44
2023/07/23 01:49:42;;;;;;;4.23;3.20;;;17.60;1.00;;;;;;5126314;27;20410;-46
2023/07/23 01:52:08;;;;;;;3.63;3.03;;;17.50;1.00;;;;;;5119398;27;20168;-44
2023/07/23 01:54:34;;;;;;;3.60;3.30;;;17.50;1.00;;;;;;5118873;28;20184;-44
2023/07/23 01:57:00;;;;;;;3.53;3.00;;;17.50;1.00;;;;;;5117777;28;20403;-44
2023/07/23 01:59:25;;;;;;;3.70;3.17;;;17.50;1.00;;;;;;5116958;28;20565;-44
2023/07/23 02:01:51;;;;;;;6.20;3.10;;;17.40;1.00;;;;;;5117750;28;20433;-45
2023/07/23 02:04:16;;;;;;;4.63;3.50;;;17.50;1.00;;;;;;5117296;28;20322;-46
2023/07/23 02:06:42;;;;;;;3.50;3.20;;;17.50;1.00;;;;;;5117251;28;20511;-43
2023/07/23 02:09:08;;;;;;;5.17;3.70;;;17.40;1.00;;;;;;5117321;28;20569;-46
2023/07/23 02:11:33;;;;;;;6.13;3.70;;;17.40;1.00;;;;;;5115668;28;20172;-46
2023/07/23 02:13:59;;;;;;;3.87;3.47;;;17.40;1.00;;;;;;5117143;28;20249;-45
2023/07/23 02:16:25;;;;;;;3.40;2.90;;;17.30;1.00;;;;;;5117231;28;20207;-44
2023/07/23 02:18:50;;;;;;;4.33;3.13;;;17.30;1.00;;;;;;5116731;28;20262;-45
2023/07/23 02:21:16;;;;;;;4.60;4.20;;;17.30;1.00;;;;;;5117223;28;20605;-44
2023/07/23 02:23:44;;;;;;;4.10;3.57;;;17.20;1.00;;;;;;5117496;28;20223;-45
2023/07/23 02:26:10;;;;;;;4.20;3.80;;;17.20;1.00;;;;;;5117053;28;20176;-46
2023/07/23 02:28:40;;;;;;;4.87;4.10;;;17.20;1.00;;;;;;5116561;28;20456;-46
2023/07/23 02:31:06;;;;;;;4.13;3.73;;;17.10;1.00;;;;;;5115140;28;20254;-44
2023/07/23 02:33:31;;;;;;;4.20;3.80;;;17.20;1.00;;;;;;5115608;28;20529;-48
2023/07/23 02:35:57;;;;;;;4.13;3.73;;;17.20;1.00;;;;;;5115830;28;20171;-43
2023/07/23 02:38:23;;;;;;;4.20;3.60;;;17.10;1.00;;;;;;5115871;28;20607;-46
2023/07/23 02:40:49;;;;;;;3.80;3.20;;;17.10;1.00;;;;;;5115115;28;20530;-45
2023/07/23 02:43:15;;;;;;;4.63;4.00;;;17.10;1.00;;;;;;5098222;28;20215;-46
2023/07/23 02:45:40;;;;;;;4.63;3.63;;;17.10;1.00;;;;;;5118101;28;20445;-47
2023/07/23 02:48:07;;;;;;;4.40;3.73;;;17.10;1.00;;;;;;5118222;28;20179;-44
2023/07/23 02:50:33;;;;;;;4.00;3.03;;;17.10;1.00;;;;;;5117466;28;20210;-45
2023/07/23 02:52:58;;;;;;;4.30;3.57;;;17.00;1.00;;;;;;5115987;28;20460;-44
2023/07/23 02:55:25;;;;;;;4.00;3.60;;;17.00;1.00;;;;;;5118138;28;20183;-45
2023/07/23 02:57:51;;;;;;;5.63;4.30;;;17.00;1.00;;;;;;5128406;27;20318;-43
2023/07/23 03:00:20;;;;;;;4.50;3.50;;;17.00;1.00;;;;;;5138610;27;20516;-44
2023/07/23 03:02:47;;;;;;;5.80;4.13;;;16.90;4.20;;;;;;5137748;27;20527;-47
2023/07/23 03:05:13;;;;;;;5.53;3.87;;;16.90;9.20;;;;;;5138276;27;20469;-45
2023/07/23 03:07:39;;;;;;;5.60;3.83;;;16.90;13.70;;;;;;5138559;27;20413;-44
2023/07/23 03:10:05;;;;;;;3.93;3.53;;;16.80;25.00;;;;;;5137000;27;20271;-46
2023/07/23 03:12:33;;;;;;;4.60;3.60;;;16.80;42.10;;;;;;5137714;27;20754;-45
2023/07/23 03:14:59;;;;;;;4.50;4.07;;;16.70;43.20;;;;;;5137581;27;20416;-47
2023/07/23 03:17:25;;;;;;;4.60;3.97;;;16.70;48.00;;;;;;5137449;27;20458;-45
2023/07/23 03:19:51;;;;;;;4.67;3.47;;;16.70;60.50;;;;;;5137740;27;20497;-45
2023/07/23 03:22:17;;;;;;;3.80;3.47;;;16.70;69.60;;;;;;5137733;27;20653;-46
2023/07/23 03:24:44;;;;;;;4.20;3.03;;;16.60;91.10;;;;;;5137945;27;20563;-45
2023/07/23 03:27:10;;;;;;;3.57;3.17;;;16.60;99.90;;;;;;5103570;27;20175;-45
2023/07/23 03:29:35;;;;;;;3.77;3.40;;;16.50;99.90;;;;;;5138272;27;20428;-46
2023/07/23 03:32:01;;;;;;;4.33;3.27;;;16.60;99.90;;;;;;5137316;27;20171;-47
2023/07/23 03:34:27;;;;;;;4.83;3.40;;;16.60;99.90;;;;;;5118781;27;20171;-47
2023/07/23 03:36:52;;;;;;;5.00;3.50;;;16.60;99.90;;;;;;5135917;27;20541;-44
2023/07/23 03:39:18;;;;;;;4.00;3.60;;;16.60;99.90;;;;;;5136690;27;20191;-46
2023/07/23 03:41:47;;;;;;;4.70;3.17;;;16.50;99.90;;;;;;5136148;27;20187;-45
2023/07/23 03:44:13;;;;;;;4.67;3.53;;;16.50;99.90;;;;;;5136555;27;20235;-47
2023/07/23 03:47:08;;;;;;;3.63;3.30;;;16.50;99.90;;;;;;5137512;27;20413;-45
2023/07/23 03:49:34;;;;;;;3.83;3.40;;;16.40;99.90;;;;;;5118238;27;20421;-45
2023/07/23 03:51:59;;;;;;;4.60;3.93;;;16.50;99.90;;;;;;5135999;27;20469;-46
2023/07/23 03:54:25;;;;;;;4.53;3.70;;;16.50;99.90;;;;;;5135975;27;20207;-46
2023/07/23 03:56:52;;;;;;;6.33;4.23;;;16.50;99.90;;;;;;5134726;27;20207;-47
2023/07/23 03:59:17;;;;;;;3.33;3.03;;;16.40;99.90;;;;;;5137000;27;20413;-46
2023/07/23 04:01:43;;;;;;;6.50;3.70;;;16.40;99.90;;;;;;5136596;27;20511;-47
2023/07/23 04:04:08;;;;;;;5.47;3.60;;;16.40;99.90;;;;;;5134599;27;20692;-47
2023/07/23 04:06:34;;;;;;;4.93;4.10;;;16.30;99.90;;;;;;5134013;27;20266;-48
2023/07/23 04:09:00;;;;;;;4.67;3.53;;;16.40;99.90;;;;;;5134093;27;20178;-46
2023/07/23 04:11:25;;;;;;;4.40;3.40;;;16.40;99.90;;;;;;5134437;27;20174;-47
2023/07/23 04:13:51;;;;;;;4.37;3.53;;;16.40;99.90;;;;;;5134101;27;20222;-46
2023/07/23 04:16:16;;;;;;;5.13;3.80;;;16.40;99.90;;;;;;5134185;27;20502;-46
2023/07/23 04:18:53;;;;;;;3.60;3.10;;;16.40;99.90;;;;;;5134101;27;20261;-46
2023/07/23 04:21:21;;;;;;;3.10;2.80;;;16.40;99.90;;;;;;5135490;27;20170;-46
2023/07/23 04:23:48;;;;;;;3.77;3.20;;;16.40;99.90;;;;;;5135833;27;20496;-47
2023/07/23 04:26:15;;;;;;;3.57;3.27;;;16.40;99.90;;;;;;5136402;27;20416;-48
2023/07/23 04:28:40;;;;;;;4.17;3.37;;;16.40;99.90;;;;;;5135523;27;20511;-46
2023/07/23 04:31:06;;;;;;;4.70;3.80;;;16.40;99.90;;;;;;5136092;27;20607;-47
2023/07/23 04:33:31;;;;;;;4.10;3.70;;;16.50;99.90;;;;;;5135999;27;20183;-46
2023/07/23 04:35:57;;;;;;;3.93;3.20;;;16.50;99.90;;;;;;5135592;27;20175;-46
2023/07/23 04:38:23;;;;;;;3.80;3.40;;;16.60;99.90;;;;;;5135269;27;20242;-47
2023/07/23 04:40:49;;;;;;;4.00;3.60;;;16.60;99.90;;;;;;5135625;27;20163;-46
2023/07/23 04:43:14;;;;;;;3.77;3.33;;;16.70;99.90;;;;;;5136098;27;20206;-46
2023/07/23 04:45:41;;;;;;;4.20;3.50;;;16.80;99.90;;;;;;5136565;27;20485;-48
2023/07/23 04:48:06;;;;;;;5.97;3.70;;;16.80;99.90;;;;;;5137248;27;20175;-45
2023/07/23 04:50:32;;;;;;;3.97;3.20;;;16.90;99.90;;;;;;5135654;27;20427;-47
2023/07/23 04:52:57;;;;;;;3.27;2.97;;;17.00;99.90;;;;;;5135852;27;20561;-46
2023/07/23 04:55:25;;;;;;;4.03;3.57;;;17.00;99.90;;;;;;5136899;27;20334;-46
2023/07/23 04:57:50;;;;;;;3.97;3.50;;;17.00;99.90;;;;;;5136449;27;20218;-47
2023/07/23 05:00:17;;;;;;;4.07;3.30;;;17.10;99.90;;;;;;5135899;27;20455;-48
2023/07/23 05:02:42;;;;;;;5.33;3.60;;;17.10;99.90;;;;;;5134983;27;20182;-47
2023/07/23 05:05:08;;;;;;;3.83;3.07;;;17.20;99.90;;;;;;5134167;27;20401;-46
2023/07/23 05:07:34;;;;;;;3.27;2.97;;;17.20;99.90;;;;;;5109116;28;20183;-47
2023/07/23 05:09:59;;;;;;;4.67;3.60;;;17.30;99.90;;;;;;5134946;28;20416;-47
2023/07/23 05:12:25;;;;;;;3.77;3.37;;;17.40;99.90;;;;;;5135174;28;20185;-46
2023/07/23 05:14:51;;;;;;;3.20;2.90;;;17.60;99.90;;;;;;5116811;28;20178;-47
2023/07/23 05:17:16;;;;;;;4.17;3.13;;;17.70;99.90;;;;;;5136162;28;20421;-47
2023/07/23 05:19:42;;;;;;;3.77;3.27;;;17.70;99.90;;;;;;5134193;28;20508;-47
2023/07/23 05:22:08;;;;;;;3.93;3.53;;;17.80;99.90;;;;;;5134479;28;20559;-46
2023/07/23 05:24:33;;;;;;;5.13;3.20;;;17.90;99.90;;;;;;5134054;28;20238;-46
2023/07/23 05:26:59;;;;;;;4.33;3.10;;;18.00;99.90;;;;;;5133548;28;20190;-47
2023/07/23 05:29:24;;;;;;;4.30;3.90;;;18.10;99.90;;;;;;5134769;28;20239;-47
2023/07/23 05:31:50;;;;;;;4.73;3.13;;;18.20;99.90;;;;;;5134932;28;20323;-47
2023/07/23 05:34:16;;;;;;;4.00;3.30;;;18.30;99.90;;;;;;5135607;28;20240;-50
2023/07/23 05:36:42;;;;;;;4.00;3.40;;;18.30;99.90;;;;;;5135268;28;20432;-46
2023/07/23 05:39:09;;;;;;;4.10;3.50;;;18.40;98.40;;;;;;5135084;28;20167;-47
2023/07/23 05:41:34;;;;;;;3.40;3.10;;;18.60;83.40;;;;;;5132091;28;20500;-47
2023/07/23 05:44:00;;;;;;;4.40;3.73;;;18.60;60.00;;;;;;5134530;28;20558;-47
2023/07/23 05:46:26;;;;;;;3.50;2.60;;;18.80;53.20;;;;;;5135070;28;20404;-47
2023/07/23 05:48:51;;;;;;;4.00;2.90;;;18.80;39.70;;;;;;5134284;28;20271;-48
2023/07/23 05:51:17;;;;;;;3.90;3.40;;;18.90;31.50;;;;;;5133994;28;20607;-46
2023/07/23 05:53:43;;;;;;;3.40;3.10;;;19.10;25.90;;;;;;5134391;28;20653;-47
2023/07/23 05:56:08;;;;;;;4.00;3.57;;;19.30;6.90;;;;;;5134396;28;20249;-47
2023/07/23 05:58:34;;;;;;;3.50;3.20;;;19.40;1.00;;;;;;5135125;28;20207;-46
2023/07/23 06:00:59;;;;;;;3.20;2.90;;;19.60;1.00;;;;;;5135337;27;20197;-50
2023/07/23 06:03:25;;;;;;;3.33;3.03;;;19.80;1.00;;;;;;5136968;27;20222;-48
2023/07/23 06:05:51;;;;;;;5.07;3.23;;;19.90;1.00;;;;;;5137191;27;20258;-49
2023/07/23 06:08:16;;;;;;;3.20;2.90;;;20.10;1.00;;;;;;5137077;27;20507;-48
2023/07/23 06:10:42;;;;;;;3.77;2.73;;;20.30;1.00;;;;;;5137556;27;20168;-47
2023/07/23 06:13:08;;;;;;;4.53;3.27;;;20.50;1.00;;;;;;5137680;27;20175;-47
2023/07/23 06:15:33;;;;;;;3.40;3.10;;;20.60;1.00;;;;;;5137782;27;20475;-48
2023/07/23 06:17:59;;;;;;;3.70;2.70;;;20.80;1.00;;;;;;5138018;27;20303;-47
2023/07/23 06:20:25;;;;;;;5.57;3.90;;;20.80;1.00;;;;;;5137531;27;20171;-47
2023/07/23 06:22:51;;;;;;;4.40;3.50;;;21.00;1.00;;;;;;5137896;27;20503;-47
2023/07/23 06:25:16;;;;;;;3.23;2.93;;;21.00;1.00;;;;;;5137985;27;20448;-49
2023/07/23 06:27:42;;;;;;;3.57;2.83;;;20.90;1.00;;;;;;5138867;27;20271;-49
2023/07/23 06:30:08;;;;;;;3.83;2.93;;;20.90;1.00;;;;;;5137711;27;20167;-46
2023/07/23 06:32:34;;;;;;;4.87;3.30;;;20.90;1.00;;;;;;5137994;27;20247;-49
2023/07/23 06:34:59;;;;;;;4.10;3.10;;;20.90;1.00;;;;;;5139007;27;20412;-46
2023/07/23 06:37:25;;;;;;;3.70;3.33;;;20.90;1.00;;;;;;5139452;27;20241;-48
2023/07/23 06:39:50;;;;;;;3.67;2.87;;;20.90;1.00;;;;;;5138257;27;20556;-49
2023/07/23 06:42:16;;;;;;;3.23;2.93;;;20.80;1.00;;;;;;5137540;27;20388;-47
2023/07/23 06:44:42;;;;;;;5.63;3.43;;;20.90;1.00;;;;;;5136661;27;20207;-48
2023/07/23 06:47:08;;;;;;;4.00;3.00;;;20.90;1.00;;;;;;5137363;27;20607;-52
2023/07/23 06:49:33;;;;;;;3.50;3.20;;;20.90;1.00;;;;;;5126815;27;20416;-46
2023/07/23 06:52:00;;;;;;;4.60;3.63;;;21.00;1.00;;;;;;5134685;27;20643;-48
2023/07/23 06:54:25;;;;;;;6.60;3.43;;;21.10;1.00;;;;;;5120176;27;20498;-49
2023/07/23 06:56:54;;;;;;;3.93;3.30;;;21.00;1.00;;;;;;5136673;27;20472;-47
2023/07/23 06:59:20;;;;;;;3.93;3.37;;;21.00;1.00;;;;;;5137287;27;20254;-49
2023/07/23 07:01:46;;;;;;;4.03;3.13;;;21.10;1.00;;;;;;5136693;27;20516;-47
2023/07/23 07:04:12;;;;;;;4.03;3.03;;;21.20;1.00;;;;;;5133107;27;20460;-48
2023/07/23 07:06:37;;;;;;;3.37;3.07;;;21.10;1.00;;;;;;5132770;27;20519;-48
2023/07/23 07:09:03;;;;;;;3.90;3.10;;;21.20;1.00;;;;;;5134250;27;20262;-49
2023/07/23 07:11:29;;;;;;;4.00;3.17;;;21.40;1.00;;;;;;5132301;27;20245;-49
2023/07/23 07:13:54;;;;;;;3.60;3.13;;;21.50;1.00;;;;;;5133264;27;20236;-48
2023/07/23 07:16:20;;;;;;;2.83;2.57;;;21.70;1.00;;;;;;5133441;27;20175;-49
2023/07/23 07:18:46;;;;;;;3.43;3.10;;;21.90;1.00;;;;;;5135891;27;20521;-49
2023/07/23 07:21:11;;;;;;;3.53;3.23;;;22.20;1.00;;;;;;5136926;27;20197;-46
2023/07/23 07:23:37;;;;;;;4.60;4.13;;;22.40;1.00;;;;;;5137393;27;20698;-48
2023/07/23 07:26:03;;;;;;;4.27;2.87;;;22.50;1.00;;;;;;5137066;27;20171;-50
2023/07/23 07:28:32;;;;;;;4.20;3.50;;;22.60;1.00;;;;;;5119089;27;20421;-49
2023/07/23 07:30:58;;;;;;;3.27;2.80;;;22.80;1.00;;;;;;5118814;27;20271;-50
2023/07/23 07:33:25;;;;;;;3.97;3.57;;;22.90;1.00;;;;;;5135285;27;20420;-48
2023/07/23 07:35:54;;;;;;;4.73;3.10;;;23.10;1.00;;;;;;5135433;27;20423;-46
2023/07/23 07:38:20;;;;;;;4.00;3.60;;;23.20;1.00;;;;;;5132034;27;20432;-48
2023/07/23 07:40:48;;;;;;;4.17;3.77;;;23.30;1.00;;;;;;5126524;27;20525;-49
2023/07/23 07:43:14;;;;;;;5.17;3.13;;;23.30;1.00;;;;;;5097912;28;20230;-49
2023/07/23 07:45:39;;;;;;;4.30;3.90;;;23.10;1.00;;;;;;5116454;28;20430;-47
2023/07/23 07:48:05;;;;;;;3.30;3.00;;;23.20;1.00;;;;;;5117036;28;20176;-48
2023/07/23 07:50:30;;;;;;;3.60;3.17;;;23.30;1.00;;;;;;5115887;28;20172;-51
2023/07/23 07:52:56;;;;;;;3.50;2.97;;;23.40;1.00;;;;;;5116598;28;20185;-51
2023/07/23 07:55:22;;;;;;;5.10;3.00;;;23.50;1.00;;;;;;5114621;28;20195;-51
2023/07/23 07:57:48;;;;;;;3.80;3.50;;;23.50;1.00;;;;;;5112920;28;20513;-50
2023/07/23 08:00:14;;;;;;;4.33;3.20;;;23.50;1.00;;;;;;5114050;28;20436;-48
2023/07/23 08:02:41;;;;;;;4.23;3.30;;;23.70;1.00;;;;;;5113558;28;20527;-49
2023/07/23 08:05:07;;;;;;;3.60;3.30;;;23.70;1.00;;;;;;5113742;28;20420;-48
2023/07/23 08:07:35;;;;;;;4.13;2.53;;;23.70;1.00;;;;;;5114355;28;20430;-50
2023/07/23 08:10:00;;;;;;;4.17;3.10;;;23.90;1.00;;;;;;5112009;28;20482;-51
2023/07/23 08:12:27;;;;;;;3.53;3.23;;;23.90;1.00;;;;;;5096134;28;20673;-47
2023/07/23 08:14:53;;;;;;;3.03;2.73;;;23.90;1.00;;;;;;5114197;28;20266;-48
2023/07/23 08:17:21;;;;;;;4.43;2.80;;;23.80;1.00;;;;;;5094570;28;20508;-49
2023/07/23 08:19:47;;;;;;;3.00;2.67;;;23.70;1.00;;;;;;5095594;28;20448;-48
2023/07/23 08:22:13;;;;;;;3.10;2.67;;;23.70;1.00;;;;;;5094964;28;20488;-48
2023/07/23 08:24:39;;;;;;;3.37;2.63;;;23.70;1.00;;;;;;5124004;27;20479;-48
2023/07/23 08:27:07;;;;;;;2.73;2.43;;;23.60;1.00;;;;;;5133944;27;20416;-50
2023/07/23 08:29:34;;;;;;;2.67;2.00;;;23.40;1.00;;;;;;5134469;27;20440;-49
2023/07/23 08:32:00;;;;;;;2.90;2.50;;;23.40;1.00;;;;;;5117340;27;20412;-49
2023/07/23 08:34:26;;;;;;;3.47;3.10;;;23.50;1.00;;;;;;5116458;27;20421;-48
2023/07/23 08:36:54;;;;;;;3.93;2.23;;;23.30;1.00;;;;;;5116441;27;20751;-49
2023/07/23 08:39:20;;;;;;;6.30;2.40;;;23.20;1.00;;;;;;5133603;27;20416;-49
2023/07/23 08:42:11;;;;;;;4.00;2.50;;;23.40;1.00;;;;;;5132562;27;20439;-47
2023/07/23 08:45:15;;;;;;;3.80;2.50;;;23.20;1.00;;;;;;5131511;27;20551;-50
2023/07/23 08:47:45;;;;;;;2.97;2.60;;;23.10;1.00;;;;;;5101502;27;20964;-48
2023/07/23 08:50:13;;;;;;;3.90;2.90;;;23.20;1.00;;;;;;5097399;27;20428;-47
2023/07/23 08:52:40;;;;;;;3.10;2.50;;;23.30;1.00;;;;;;5115566;28;20471;-47
2023/07/23 08:55:08;;;;;;;2.90;2.40;;;23.30;1.00;;;;;;5132624;27;20519;-47
2023/07/23 08:57:34;;;;;;;2.47;2.27;;;23.40;1.00;;;;;;5134570;27;20581;-48
2023/07/23 09:00:01;;;;;;;2.90;2.60;;;23.40;1.00;;;;;;5117393;28;20448;-46
2023/07/23 09:02:28;;;;;;;2.90;2.70;;;23.50;1.00;;;;;;5136722;27;20413;-47
2023/07/23 09:04:54;;;;;;;2.47;2.20;;;23.60;1.00;;;;;;5118956;27;20474;-47
2023/07/23 09:07:20;;;;;;;4.00;2.77;;;23.70;1.00;;;;;;5136755;28;20491;-50
2023/07/23 09:09:50;;;;;;;3.13;2.50;;;23.90;1.00;;;;;;5135589;28;20493;-49
2023/07/23 09:12:16;;;;;;;3.60;2.70;;;24.10;1.00;;;;;;5134768;28;20197;-46
2023/07/23 09:14:44;;;;;;;2.67;2.30;;;24.20;1.00;;;;;;5133147;28;20432;-48
2023/07/23 09:17:20;;;;;;;2.90;2.47;;;24.20;1.00;;;;;;5133151;28;20448;-49
2023/07/23 09:19:46;;;;;;;3.47;2.47;;;24.40;1.00;;;;;;5112531;28;20571;-48
2023/07/23 09:22:12;;;;;;;3.63;2.47;;;24.20;1.00;;;;;;5131738;28;20417;-45
2023/07/23 09:24:38;;;;;;;2.80;2.50;;;24.10;1.00;;;;;;5112975;28;20314;-46
2023/07/23 09:27:03;;;;;;;2.23;2.00;;;24.00;1.00;;;;;;5133610;28;20232;-49
2023/07/23 09:29:36;;;;;;;3.60;2.27;;;23.90;1.00;;;;;;5133634;28;20456;-47
2023/07/23 09:32:02;;;;;;;2.30;2.10;;;24.30;1.00;;;;;;5135117;28;20503;-47
2023/07/23 09:34:28;;;;;;;2.30;2.10;;;24.40;1.00;;;;;;5134016;28;20893;-48
2023/07/23 09:36:54;;;;;;;2.87;2.57;;;24.60;1.00;;;;;;5118402;27;20754;-48
2023/07/23 09:39:23;;;;;;;2.10;1.90;;;24.50;1.00;;;;;;5118282;27;20167;-47
2023/07/23 09:41:49;;;;;;;2.47;2.27;;;24.70;1.00;;;;;;5136800;27;20171;-48
2023/07/23 09:44:14;;;;;;;2.87;1.80;;;24.80;1.00;;;;;;5135993;27;20467;-47
2023/07/23 09:46:44;;;;;;;3.50;2.27;;;24.80;1.00;;;;;;5137662;27;20179;-49
2023/07/23 09:49:11;;;;;;;2.57;2.30;;;24.50;1.00;;;;;;5138041;27;20171;-48
2023/07/23 09:51:37;;;;;;;3.80;2.40;;;24.30;1.00;;;;;;5137710;27;20420;-47
2023/07/23 09:54:03;;;;;;;2.70;2.33;;;24.20;1.00;;;;;;5136270;27;20493;-46
2023/07/23 09:56:32;;;;;;;2.53;2.10;;;24.20;1.00;;;;;;5137190;27;20480;-50
2023/07/23 09:58:59;;;;;;;4.17;3.03;;;24.50;1.00;;;;;;5137889;27;20408;-48
2023/07/23 10:01:25;;;;;;;2.90;2.30;;;24.60;1.00;;;;;;5139143;27;20420;-47
2023/07/23 10:03:50;;;;;;;3.33;3.00;;;24.70;1.00;;;;;;5138261;27;20765;-49
2023/07/23 10:06:20;;;;;;;3.47;2.50;;;24.50;1.00;;;;;;5138107;27;20179;-47
2023/07/23 10:08:48;;;;;;;2.43;2.10;;;24.50;1.00;;;;;;5137587;27;20244;-48
2023/07/23 10:11:15;;;;;;;2.97;2.43;;;24.70;1.00;;;;;;5137235;27;20667;-49
2023/07/23 10:13:42;;;;;;;3.03;2.57;;;24.70;1.00;;;;;;5136811;27;20431;-47
2023/07/23 10:16:30;;;;;;;3.20;2.27;;;24.60;1.00;;;;;;5135979;27;21219;-48
2023/07/23 10:18:57;;;;;;;3.13;2.60;;;24.60;1.00;;;;;;5121385;27;20847;-47
2023/07/23 10:21:23;;;;;;;3.50;2.27;;;24.50;1.00;;;;;;5116479;27;20588;-47
2023/07/23 10:23:56;;;;;;;3.20;2.53;;;24.60;1.00;;;;;;5128581;27;20563;-48
2023/07/23 10:26:29;;;;;;;2.97;2.67;;;24.80;1.00;;;;;;5113529;27;20430;-49
2023/07/23 10:29:08;;;;;;;3.23;2.40;;;25.00;1.00;;;;;;5115941;27;20418;-45
2023/07/23 10:31:34;;;;;;;3.80;2.83;;;25.20;1.00;;;;;;5116232;27;20808;-50
2023/07/23 10:33:59;;;;;;;3.43;3.03;;;25.30;1.00;;;;;;5116423;28;21107;-46
2023/07/23 10:36:26;;;;;;;3.83;3.20;;;25.10;1.00;;;;;;5114155;28;20529;-50
2023/07/23 10:39:16;;;;;;;2.77;2.50;;;25.10;1.00;;;;;;5111963;28;20436;-48
2023/07/23 10:41:53;;;;;;;3.20;2.80;;;25.20;1.00;;;;;;5111824;28;20780;-49
2023/07/23 10:44:21;;;;;;;2.67;2.47;;;25.10;1.00;;;;;;5096550;28;20463;-49
2023/07/23 10:46:46;;;;;;;2.87;2.57;;;25.40;1.00;;;;;;5116056;28;20418;-50
2023/07/23 10:49:22;;;;;;;2.30;2.10;;;25.70;1.00;;;;;;5097234;28;20429;-47
2023/07/23 10:51:50;;;;;;;3.40;2.83;;;26.00;1.00;;;;;;5117536;28;20443;-49
2023/07/23 10:54:17;;;;;;;3.90;3.17;;;26.30;1.00;;;;;;5115620;28;20425;-48
2023/07/23 10:56:47;;;;;;;3.83;2.97;;;26.60;1.00;;;;;;5116430;28;20484;-50
2023/07/23 10:59:15;;;;;;;4.17;3.40;;;26.70;1.00;;;;;;5098828;28;20424;-48
2023/07/23 11:01:43;;;;;;;3.23;2.70;;;26.80;1.00;;;;;;5097101;28;20495;-51
2023/07/23 11:04:13;;;;;;;3.70;3.30;;;26.80;1.00;;;;;;5114723;28;20575;-50
2023/07/23 11:06:54;;;;;;;3.90;3.00;;;26.80;1.00;;;;;;5096357;28;20429;-47
2023/07/23 11:09:27;;;;;;;3.57;2.73;;;26.60;1.00;;;;;;5116364;27;20433;-48
2023/07/23 11:11:55;;;;;;;3.70;2.80;;;26.60;1.00;;;;;;5097064;28;20473;-52
2023/07/23 11:14:28;;;;;;;5.10;2.83;;;26.70;1.00;;;;;;5115424;27;20405;-49
2023/07/23 11:17:02;;;;;;;4.40;3.37;;;27.10;1.00;;;;;;5132375;27;20477;-50
2023/07/23 11:19:28;;;;;;;5.03;3.40;;;27.30;1.00;;;;;;5131323;27;20416;-47
2023/07/23 11:21:56;;;;;;;3.40;3.10;;;27.50;1.00;;;;;;5133326;27;20481;-50
2023/07/23 11:24:28;;;;;;;2.83;2.53;;;27.70;1.00;;;;;;5131981;27;20492;-51
2023/07/23 11:26:58;;;;;;;3.60;3.30;;;27.80;1.00;;;;;;5132158;27;20458;-50
2023/07/23 11:29:24;;;;;;;4.07;3.70;;;28.10;1.00;;;;;;5132117;27;20890;-50
2023/07/23 11:31:51;;;;;;;3.77;3.47;;;28.00;1.00;;;;;;5131818;27;20379;-49
2023/07/23 11:34:17;;;;;;;4.10;3.70;;;28.20;1.00;;;;;;5133693;27;20492;-47
2023/07/23 11:36:43;;;;;;;4.23;3.60;;;28.00;1.00;;;;;;5133792;27;20424;-50
2023/07/23 11:39:09;;;;;;;4.10;3.43;;;28.40;1.00;;;;;;5116174;27;20572;-48
2023/07/23 11:41:39;;;;;;;4.60;3.80;;;28.70;1.00;;;;;;5133020;27;20179;-49
2023/07/23 11:44:06;;;;;;;3.50;3.20;;;28.90;1.00;;;;;;5117057;27;20960;-48
2023/07/23 11:46:33;;;;;;;3.70;3.40;;;28.70;1.00;;;;;;5134265;27;20435;-49
2023/07/23 11:49:00;;;;;;;3.70;3.00;;;28.70;1.00;;;;;;5132240;27;20893;-48
2023/07/23 11:51:28;;;;;;;4.30;3.20;;;28.60;1.00;;;;;;5123019;27;20444;-47
2023/07/23 11:54:10;;;;;;;3.80;3.40;;;28.20;1.00;;;;;;5112971;28;20464;-49
2023/07/23 11:56:47;;;;;;;3.50;3.00;;;27.90;1.00;;;;;;5114078;28;21101;-49
2023/07/23 11:59:14;;;;;;;3.20;2.90;;;27.60;1.00;;;;;;5112229;28;20413;-49
2023/07/23 12:01:40;;;;;;;3.30;3.00;;;27.40;1.00;;;;;;5115643;28;20417;-48
2023/07/23 12:04:07;;;;;;;4.63;3.00;;;27.10;1.00;;;;;;5097476;28;20480;-48
2023/07/23 12:06:38;;;;;;;3.90;3.03;;;26.70;1.00;;;;;;5115405;28;20429;-48
2023/07/23 12:09:08;;;;;;;3.63;3.30;;;26.60;1.00;;;;;;5113865;28;20441;-49
2023/07/23 12:11:37;;;;;;;3.30;3.00;;;26.70;1.00;;;;;;5114929;28;20429;-48
2023/07/23 12:14:02;;;;;;;4.63;3.10;;;26.70;1.00;;;;;;5124542;27;20440;-51
2023/07/23 12:16:46;;;;;;;4.90;3.60;;;26.60;1.00;;;;;;5134553;27;20432;-48
2023/07/23 12:19:16;;;;;;;3.60;3.30;;;26.20;1.00;;;;;;5132148;27;20455;-48
2023/07/23 12:21:44;;;;;;;3.43;3.13;;;26.30;1.00;;;;;;5133312;27;20425;-48
2023/07/23 12:24:20;;;;;;;3.70;3.40;;;26.30;1.00;;;;;;5132748;27;20574;-48
2023/07/23 12:26:48;;;;;;;3.30;3.00;;;26.30;1.00;;;;;;5114701;27;20416;-48
2023/07/23 12:29:14;;;;;;;3.93;3.33;;;26.10;1.00;;;;;;5134550;27;20512;-47
2023/07/23 12:31:43;;;;;;;4.33;3.93;;;25.80;1.00;;;;;;5132043;27;20420;-49
2023/07/23 12:34:13;;;;;;;3.60;3.30;;;25.60;1.00;;;;;;5132710;27;20438;-49
2023/07/23 12:36:39;;;;;;;3.17;2.87;;;25.50;1.00;;;;;;5133873;27;20569;-48
2023/07/23 12:39:06;;;;;;;4.07;3.23;;;25.50;1.00;;;;;;5132276;27;20471;-49
2023/07/23 12:41:32;;;;;;;4.20;3.80;;;25.40;1.00;;;;;;5132952;27;20435;-47
2023/07/23 12:43:57;;;;;;;3.80;3.40;;;25.50;1.00;;;;;;5133161;27;20865;-48
2023/07/23 12:46:23;;;;;;;3.60;3.17;;;25.40;1.00;;;;;;5132591;27;20218;-48
2023/07/23 12:48:49;;;;;;;3.00;2.70;;;25.40;1.00;;;;;;5134352;27;20537;-49
2023/07/23 12:51:15;;;;;;;3.90;3.50;;;25.40;1.00;;;;;;5117207;28;20503;-47
2023/07/23 12:53:41;;;;;;;3.63;3.27;;;25.40;1.00;;;;;;5135557;27;20508;-51